createdAt,value
2018-09-18T16:48:29.571Z,33.70
2018-09-18T16:50:58.504Z,34.50
2018-09-18T16:53:27.363Z,34.60
2018-09-18T16:55:56.411Z,34.70
2018-09-18T16:58:25.313Z,34.50
2018-09-18T17:00:54.154Z,34.80
2018-09-18T17:03:22.981Z,35.10
2018-09-18T17:05:51.827Z,35.30
2018-09-18T17:08:20.583Z,35.40
2018-09-18T17:10:49.488Z,35.50
2018-09-18T17:13:18.357Z,35.70
2018-09-18T17:15:47.103Z,35.80
2018-09-18T17:18:15.832Z,36.10
2018-09-18T17:20:44.960Z,36.40
2018-09-18T17:23:14.200Z,36.50
2018-09-18T17:25:43.898Z,36.70
2018-09-18T17:28:12.842Z,36.80
2018-09-18T17:30:42.240Z,37.00
2018-09-18T17:33:11.503Z,37.20
2018-09-18T17:35:40.805Z,37.30
2018-09-18T17:38:09.924Z,37.40
2018-09-18T17:40:39.180Z,37.60
2018-09-18T17:43:08.314Z,37.70
2018-09-18T17:45:37.723Z,37.70
2018-09-18T17:48:06.877Z,37.70
2018-09-18T17:50:35.970Z,37.80
2018-09-18T17:53:06.766Z,38.00
2018-09-18T17:55:36.198Z,38.10
2018-09-18T17:58:05.795Z,38.50
2018-09-18T18:00:35.001Z,38.50
2018-09-18T18:03:04.722Z,38.60
2018-09-18T18:05:34.261Z,38.70
2018-09-18T18:08:03.974Z,38.60
2018-09-18T18:10:33.651Z,38.80
2018-09-18T18:13:02.880Z,39.10
2018-09-18T18:15:32.335Z,39.10
2018-09-18T18:18:02.502Z,39.30
2018-09-18T18:20:32.015Z,39.40
2018-09-18T18:23:01.278Z,39.60
2018-09-18T18:25:30.717Z,39.90
2018-09-18T18:28:00.418Z,39.70
2018-09-18T18:30:30.331Z,40.00
2018-09-18T18:32:59.692Z,40.10
2018-09-18T18:35:29.208Z,40.20
2018-09-18T18:37:59.167Z,40.50
2018-09-18T18:40:28.701Z,40.70
2018-09-18T18:42:58.159Z,41.20
2018-09-18T18:45:27.687Z,41.40
2018-09-18T18:47:57.766Z,41.60
2018-09-18T18:50:26.317Z,41.80
2018-09-18T18:52:55.630Z,42.10
2018-09-18T18:55:24.656Z,42.20
2018-09-18T18:57:54.163Z,42.30
2018-09-18T19:00:23.502Z,42.50
2018-09-18T19:02:53.657Z,42.70
2018-09-18T19:05:23.085Z,43.00
2018-09-18T19:07:52.602Z,43.50
2018-09-18T19:10:21.857Z,43.70
2018-09-18T19:12:51.233Z,43.90
2018-09-18T19:15:20.920Z,44.10
2018-09-18T19:17:50.430Z,44.50
2018-09-18T19:20:19.856Z,44.60
2018-09-18T19:22:49.201Z,44.80
2018-09-18T19:25:18.607Z,45.50
2018-09-18T19:27:47.844Z,45.00
2018-09-18T19:30:17.369Z,44.90
2018-09-18T19:32:47.095Z,45.20
2018-09-18T19:35:16.513Z,45.30
2018-09-18T19:37:45.636Z,45.20
2018-09-18T19:40:15.711Z,45.50
2018-09-18T19:42:45.597Z,45.60
2018-09-18T19:45:14.517Z,45.60
2018-09-18T19:47:43.949Z,45.80
2018-09-18T19:50:15.535Z,45.90
2018-09-18T19:52:46.009Z,45.90
2018-09-18T19:55:15.997Z,46.40
2018-09-18T19:57:45.739Z,46.30
2018-09-18T20:00:15.018Z,46.40
2018-09-18T20:02:44.703Z,46.50
2018-09-18T20:05:14.504Z,46.20
2018-09-18T20:07:43.667Z,46.40
2018-09-18T20:10:12.506Z,46.50
2018-09-18T20:12:43.685Z,46.60
2018-09-18T20:15:12.809Z,46.90
2018-09-18T20:17:42.303Z,46.70
2018-09-18T20:20:12.441Z,46.80
2018-09-18T20:22:41.761Z,47.10
2018-09-18T20:25:10.873Z,47.10
2018-09-18T20:27:40.409Z,47.20
2018-09-18T20:30:09.402Z,47.50
2018-09-18T20:32:38.695Z,48.30
2018-09-18T20:35:08.248Z,47.70
2018-09-18T20:37:37.606Z,48.20
2018-09-18T20:40:07.947Z,48.80
2018-09-18T20:42:37.676Z,49.10
2018-09-18T20:45:38.113Z,49.60
2018-09-18T20:48:08.432Z,49.80
2018-09-18T20:50:37.537Z,50.20
2018-09-18T20:53:06.733Z,50.20
2018-09-18T20:55:36.084Z,50.40
2018-09-18T20:58:04.554Z,50.40
2018-09-18T21:00:33.028Z,50.60
2018-09-18T21:03:01.526Z,50.50
2018-09-18T21:05:30.004Z,50.60
2018-09-18T21:07:58.476Z,51.00
2018-09-18T21:10:26.936Z,50.70
2018-09-18T21:12:55.444Z,51.00
2018-09-18T21:15:23.908Z,51.00
2018-09-18T21:17:52.407Z,51.00
2018-09-18T21:20:20.925Z,51.20
2018-09-18T21:22:49.361Z,51.10
2018-09-18T21:25:20.710Z,51.40
2018-09-18T21:27:49.141Z,51.30
2018-09-18T21:30:18.058Z,52.00
2018-09-18T21:32:46.658Z,51.60
2018-09-18T21:35:15.121Z,51.60
2018-09-18T21:37:43.612Z,51.70
2018-09-18T21:40:12.075Z,51.80
2018-09-18T21:42:40.590Z,52.30
2018-09-18T21:45:09.346Z,52.40
2018-09-18T21:47:37.840Z,52.70
2018-09-18T21:50:07.132Z,53.20
2018-09-18T21:52:35.630Z,53.00
2018-09-18T21:55:04.153Z,53.30
2018-09-18T21:57:32.600Z,53.50
2018-09-18T22:00:01.093Z,53.80
2018-09-18T22:02:29.565Z,53.80
2018-09-18T22:04:58.021Z,54.30
2018-09-18T22:07:26.591Z,54.30
2018-09-18T22:09:55.129Z,54.50
2018-09-18T22:12:23.677Z,54.70
2018-09-18T22:14:52.181Z,55.20
2018-09-18T22:17:20.689Z,55.20
2018-09-18T22:19:49.256Z,55.80
2018-09-18T22:22:17.804Z,55.40
2018-09-18T22:24:46.310Z,55.70
2018-09-18T22:27:14.823Z,56.10
2018-09-18T22:29:43.377Z,56.60
2018-09-18T22:32:11.902Z,56.40
2018-09-18T22:34:40.447Z,57.20
2018-09-18T22:37:08.955Z,56.90
2018-09-18T22:39:37.517Z,57.20
2018-09-18T22:42:06.007Z,57.40
2018-09-18T22:44:34.471Z,57.40
2018-09-18T22:47:02.977Z,57.30
2018-09-18T22:49:31.526Z,57.80
2018-09-18T22:52:00.019Z,57.90
2018-09-18T22:54:28.570Z,57.60
2018-09-18T22:56:57.307Z,57.80
2018-09-18T22:59:25.899Z,58.40
2018-09-18T23:01:54.874Z,58.20
2018-09-18T23:04:24.162Z,58.60
2018-09-18T23:06:52.713Z,58.50
2018-09-18T23:09:21.286Z,58.80
2018-09-18T23:11:50.681Z,59.10
2018-09-18T23:14:19.582Z,59.50
2018-09-18T23:16:51.130Z,59.50
2018-09-18T23:19:19.759Z,58.90
2018-09-18T23:21:48.349Z,58.70
2018-09-18T23:24:17.357Z,59.30
2018-09-18T23:26:45.890Z,58.70
2018-09-18T23:29:14.849Z,58.80
2018-09-18T23:31:43.329Z,58.90
2018-09-18T23:34:11.749Z,59.20
2018-09-18T23:36:40.169Z,59.10
2018-09-18T23:39:09.153Z,59.20
2018-09-18T23:41:44.211Z,59.00
2018-09-18T23:44:13.515Z,59.20
2018-09-18T23:46:41.954Z,59.20
2018-09-18T23:49:10.460Z,59.30
2018-09-18T23:51:38.914Z,59.50
2018-09-18T23:54:09.487Z,59.60
2018-09-18T23:56:38.576Z,59.60
2018-09-18T23:59:09.375Z,60.10
